Time;durP1;ratioP1;P1;durP2;ratioP2;P2;SDS_P1;SDS_P2;PMS_P1;PMS_P2;Temp;Humidity;BMP_temperature;BMP_pressure;BME280_temperature;BME280_humidity;BME280_pressure;Samples;Min_cycle;Max_cycle;Signal;HPM_P1;HPM_P2
2022/03/27 00:01:07;;;;;;;15.63;7.50;;;10.30;99.90;;;;;;5031213;28;20257;-85
2022/03/27 00:03:34;;;;;;;11.40;7.17;;;10.20;99.90;;;;;;5037237;28;20301;-82
2022/03/27 00:06:03;;;;;;;12.47;7.17;;;10.20;99.90;;;;;;5028583;28;20225;-82
2022/03/27 00:08:30;;;;;;;16.33;7.40;;;10.10;99.90;;;;;;5014080;28;20597;-83
2022/03/27 00:13:41;;;;;;;15.53;7.90;;;10.10;99.90;;;;;;5029847;28;20255;-82
2022/03/27 00:16:09;;;;;;;13.53;8.10;;;10.10;99.90;;;;;;5030747;28;20205;-82
2022/03/27 00:18:36;;;;;;;15.00;8.00;;;10.10;99.90;;;;;;5035541;28;20261;-84
2022/03/27 00:21:05;;;;;;;14.97;7.00;;;10.10;99.90;;;;;;5028766;28;20205;-82
2022/03/27 00:23:32;;;;;;;13.73;7.40;;;10.00;99.90;;;;;;5028759;28;20199;-83
2022/03/27 00:25:59;;;;;;;11.67;7.50;;;10.00;99.90;;;;;;5029277;28;21617;-82
2022/03/27 00:28:31;;;;;;;14.50;7.30;;;10.00;99.90;;;;;;5030769;28;20236;-82
2022/03/27 00:31:00;;;;;;;13.17;7.57;;;10.00;99.90;;;;;;5034146;28;20202;-83
2022/03/27 00:33:27;;;;;;;13.23;7.00;;;10.00;99.90;;;;;;5029961;28;20217;-82
2022/03/27 00:35:54;;;;;;;13.13;6.90;;;10.00;99.90;;;;;;5033314;28;20209;-83
2022/03/27 00:38:22;;;;;;;12.83;7.73;;;10.00;99.90;;;;;;5014929;28;20225;-84
2022/03/27 00:40:50;;;;;;;13.13;7.73;;;10.00;99.90;;;;;;5030653;28;20206;-84
2022/03/27 00:43:18;;;;;;;18.33;8.07;;;10.00;99.90;;;;;;5033210;28;20255;-84
2022/03/27 00:45:46;;;;;;;13.87;7.77;;;9.90;99.90;;;;;;5033714;28;20295;-81
2022/03/27 00:48:13;;;;;;;13.33;7.37;;;9.90;99.90;;;;;;5032837;28;20308;-83
2022/03/27 00:50:40;;;;;;;12.93;7.40;;;9.90;99.90;;;;;;5035503;28;20206;-83
2022/03/27 00:53:09;;;;;;;14.03;7.77;;;9.90;99.90;;;;;;5045996;28;20259;-82
2022/03/27 00:55:37;;;;;;;14.37;7.47;;;9.80;99.90;;;;;;5046123;28;20346;-84
2022/03/27 00:58:05;;;;;;;12.07;7.90;;;9.80;99.90;;;;;;5042561;28;20632;-83
2022/03/27 01:00:56;;;;;;;15.23;8.40;;;9.70;99.90;;;;;;5035481;28;20220;-84
2022/03/27 01:03:26;;;;;;;15.17;8.50;;;9.70;99.90;;;;;;5016898;28;20236;-83
2022/03/27 01:05:57;;;;;;;16.80;9.43;;;9.60;99.90;;;;;;5035848;28;20225;-82
2022/03/27 01:11:16;;;;;;;21.90;9.63;;;9.60;99.90;;;;;;5028444;28;20194;-83
2022/03/27 01:13:48;;;;;;;18.03;8.67;;;11.50;99.90;;;;;;5028399;28;20351;-83
2022/03/27 01:16:32;;;;;;;16.70;9.17;;;9.50;99.90;;;;;;5027885;28;20236;-83
2022/03/27 01:19:00;;;;;;;14.20;8.40;;;9.50;99.90;;;;;;5027233;28;20234;-83
2022/03/27 01:21:28;;;;;;;15.37;8.60;;;9.50;99.90;;;;;;5029172;28;20288;-84
2022/03/27 01:23:56;;;;;;;17.67;8.93;;;9.40;99.90;;;;;;5030690;28;20205;-83
2022/03/27 01:26:24;;;;;;;16.17;8.90;;;9.40;99.90;;;;;;5007289;28;20526;-83
2022/03/27 01:28:51;;;;;;;14.67;8.93;;;9.40;99.90;;;;;;5025091;28;20296;-83
2022/03/27 01:31:18;;;;;;;15.87;8.70;;;9.30;99.90;;;;;;5025463;28;20197;-83
2022/03/27 01:33:45;;;;;;;20.60;9.13;;;9.30;99.90;;;;;;5023055;28;20221;-83
2022/03/27 01:36:12;;;;;;;16.43;9.20;;;9.30;99.90;;;;;;5024176;28;20646;-82
2022/03/27 01:38:40;;;;;;;18.60;9.13;;;9.20;99.90;;;;;;5031534;28;20746;-83
2022/03/27 01:41:07;;;;;;;17.07;9.53;;;9.20;99.90;;;;;;5019673;28;20753;-83
2022/03/27 01:43:34;;;;;;;19.87;10.07;;;9.20;99.90;;;;;;5028114;28;20217;-83
2022/03/27 01:46:01;;;;;;;16.57;9.40;;;9.10;99.90;;;;;;5026515;28;20238;-82
2022/03/27 01:48:28;;;;;;;18.23;9.83;;;9.10;99.90;;;;;;5037523;28;20299;-83
2022/03/27 01:50:59;;;;;;;20.17;10.40;;;9.10;99.90;;;;;;5031510;28;20222;-83
2022/03/27 01:53:26;;;;;;;17.57;9.87;;;9.10;99.90;;;;;;5030092;28;20604;-83
2022/03/27 01:55:54;;;;;;;20.77;10.97;;;9.10;99.90;;;;;;5029778;28;20210;-82
2022/03/27 01:58:21;;;;;;;18.13;10.90;;;9.10;99.90;;;;;;5030843;28;20590;-82
2022/03/27 02:00:48;;;;;;;19.53;10.67;;;9.10;99.90;;;;;;5031058;28;20675;-81
2022/03/27 02:03:15;;;;;;;22.30;11.97;;;9.10;99.90;;;;;;5031250;28;20210;-82
2022/03/27 02:05:43;;;;;;;19.73;11.33;;;9.10;99.90;;;;;;5030530;28;20222;-81
2022/03/27 02:08:12;;;;;;;17.23;11.63;;;9.10;99.90;;;;;;5033712;28;20225;-81
2022/03/27 02:10:40;;;;;;;20.53;11.87;;;9.10;99.90;;;;;;5033589;28;20221;-84
2022/03/27 02:13:14;;;;;;;18.53;10.60;;;9.10;99.90;;;;;;5029621;28;20217;-83
2022/03/27 02:15:41;;;;;;;18.37;10.77;;;9.10;99.90;;;;;;5014457;28;20272;-83
2022/03/27 02:18:10;;;;;;;21.33;10.83;;;9.00;99.90;;;;;;5028682;28;20222;-82
2022/03/27 02:20:37;;;;;;;22.47;12.00;;;9.00;99.90;;;;;;5012434;28;20214;-81
2022/03/27 02:23:04;;;;;;;20.67;12.27;;;9.00;99.90;;;;;;5030847;28;20202;-82
2022/03/27 02:25:31;;;;;;;22.37;12.47;;;8.90;99.90;;;;;;5028811;28;20270;-82
2022/03/27 02:27:58;;;;;;;22.50;11.67;;;8.90;99.90;;;;;;5030179;28;20584;-82
2022/03/27 02:30:26;;;;;;;21.70;11.93;;;8.90;99.90;;;;;;5029717;28;20242;-81
2022/03/27 02:32:53;;;;;;;24.20;13.70;;;8.90;99.90;;;;;;5011096;28;20213;-81
2022/03/27 02:35:20;;;;;;;23.70;12.70;;;8.90;99.90;;;;;;5030916;28;21501;-82
2022/03/27 02:37:48;;;;;;;22.50;13.57;;;;;;;;;;5028099;28;20240;-82
2022/03/27 02:40:15;;;;;;;23.30;12.80;;;;;;;;;;5031175;28;20501;-83
2022/03/27 02:42:42;;;;;;;19.77;12.43;;;8.80;99.90;;;;;;5019189;28;20228;-83
2022/03/27 02:45:09;;;;;;;21.70;12.23;;;8.80;99.90;;;;;;5028200;28;20210;-83
2022/03/27 02:47:38;;;;;;;19.97;12.90;;;8.80;99.90;;;;;;5010171;28;20732;-82
2022/03/27 02:50:06;;;;;;;20.87;13.07;;;8.70;99.90;;;;;;5028357;28;20281;-82
2022/03/27 02:52:33;;;;;;;24.83;14.53;;;8.70;99.90;;;;;;5027557;28;20214;-83
2022/03/27 02:55:00;;;;;;;25.17;14.83;;;8.70;99.90;;;;;;5012603;28;20225;-82
2022/03/27 02:57:27;;;;;;;25.03;14.57;;;8.70;99.90;;;;;;5029985;28;20573;-83
2022/03/27 02:59:54;;;;;;;26.07;15.87;;;8.70;99.90;;;;;;5027776;28;20211;-82
2022/03/27 03:02:22;;;;;;;27.20;14.03;;;8.60;99.90;;;;;;5025915;28;20224;-82
2022/03/27 03:04:51;;;;;;;26.37;14.80;;;8.60;99.90;;;;;;5027641;28;20297;-83
2022/03/27 03:07:18;;;;;;;27.67;14.03;;;8.60;99.90;;;;;;5029521;28;20233;-83
2022/03/27 03:09:45;;;;;;;28.70;15.33;;;8.50;99.90;;;;;;5031764;28;20288;-82
2022/03/27 03:12:13;;;;;;;26.77;15.93;;;8.50;99.90;;;;;;5029096;28;20221;-82
2022/03/27 03:14:40;;;;;;;23.57;15.77;;;8.50;99.90;;;;;;5027886;28;20252;-83
2022/03/27 03:17:09;;;;;;;28.23;16.87;;;8.50;99.90;;;;;;5029984;28;20225;-85
2022/03/27 03:19:36;;;;;;;31.83;17.83;;;8.50;99.90;;;;;;5027621;28;20215;-84
2022/03/27 03:22:07;;;;;;;27.20;16.20;;;8.50;99.90;;;;;;5029271;28;20256;-82
2022/03/27 03:24:34;;;;;;;28.20;16.43;;;8.40;99.90;;;;;;5029467;28;20269;-83
2022/03/27 03:27:01;;;;;;;33.43;17.43;;;8.40;99.90;;;;;;5030087;28;20264;-82
2022/03/27 03:29:28;;;;;;;32.13;16.57;;;8.40;99.90;;;;;;5029737;28;20224;-82
2022/03/27 03:31:56;;;;;;;31.13;17.90;;;8.30;99.90;;;;;;5031644;28;20216;-82
2022/03/27 03:34:23;;;;;;;28.57;17.13;;;8.30;99.90;;;;;;5032160;28;20256;-83
2022/03/27 03:36:50;;;;;;;29.37;19.00;;;8.30;99.90;;;;;;5024445;28;20459;-82
2022/03/27 03:39:20;;;;;;;27.83;16.70;;;8.30;99.90;;;;;;5046224;28;20213;-82
2022/03/27 03:41:47;;;;;;;23.07;15.87;;;8.30;99.90;;;;;;5050319;28;20234;-80
2022/03/27 03:44:14;;;;;;;25.57;15.43;;;8.20;99.90;;;;;;5053096;28;20266;-82
2022/03/27 03:46:41;;;;;;;24.67;15.87;;;8.20;99.90;;;;;;5049297;28;20280;-83
2022/03/27 03:49:08;;;;;;;25.97;15.73;;;8.20;99.90;;;;;;5051089;28;20201;-82
2022/03/27 03:51:35;;;;;;;26.67;16.87;;;8.20;99.90;;;;;;5050383;28;20446;-82
2022/03/27 03:54:03;;;;;;;26.87;16.57;;;8.20;99.90;;;;;;5055950;28;20244;-81
2022/03/27 03:56:31;;;;;;;33.37;19.77;;;8.20;99.90;;;;;;5041230;28;20253;-82
2022/03/27 03:58:58;;;;;;;31.00;20.13;;;8.20;99.90;;;;;;5036570;28;20236;-83
2022/03/27 04:01:25;;;;;;;33.17;19.30;;;8.30;99.90;;;;;;5034840;28;20279;-83
2022/03/27 04:03:52;;;;;;;26.20;17.63;;;8.30;99.90;;;;;;5016371;28;20210;-83
2022/03/27 04:06:20;;;;;;;28.70;18.43;;;8.40;99.90;;;;;;5037892;28;20270;-82
2022/03/27 04:08:46;;;;;;;34.10;20.53;;;8.40;99.90;;;;;;5039798;28;20264;-83
2022/03/27 04:11:16;;;;;;;32.03;20.57;;;8.50;99.90;;;;;;5034833;28;20225;-83
2022/03/27 04:13:45;;;;;;;33.20;20.43;;;8.60;99.90;;;;;;5034979;28;20220;-83
2022/03/27 04:16:12;;;;;;;35.60;19.63;;;8.60;99.90;;;;;;5017006;28;20233;-83
2022/03/27 04:18:39;;;;;;;32.20;20.07;;;8.50;99.90;;;;;;5015325;28;20233;-83
2022/03/27 04:21:06;;;;;;;36.30;21.90;;;8.70;99.90;;;;;;5031259;28;20217;-82
2022/03/27 04:23:33;;;;;;;38.30;21.60;;;8.80;99.90;;;;;;5033826;28;20209;-82
2022/03/27 04:26:00;;;;;;;34.20;20.83;;;8.80;99.90;;;;;;5014609;28;20288;-83
2022/03/27 04:28:27;;;;;;;34.20;20.50;;;8.90;99.90;;;;;;5028720;28;20317;-83
2022/03/27 04:30:55;;;;;;;34.10;20.57;;;8.90;99.90;;;;;;5030647;28;20296;-83
2022/03/27 04:33:23;;;;;;;36.60;20.00;;;9.00;99.90;;;;;;5033106;28;20323;-81
2022/03/27 04:35:50;;;;;;;33.87;21.43;;;9.00;99.90;;;;;;5031426;28;20235;-81
2022/03/27 04:38:17;;;;;;;32.57;20.63;;;9.00;99.90;;;;;;5031486;28;20240;-81
2022/03/27 04:40:44;;;;;;;24.77;15.50;;;9.00;99.90;;;;;;5028406;28;20206;-81
2022/03/27 04:43:12;;;;;;;34.83;20.20;;;9.10;99.90;;;;;;5014371;28;20230;-83
2022/03/27 04:45:39;;;;;;;34.20;21.83;;;9.10;99.90;;;;;;5043573;28;20246;-82
2022/03/27 04:48:08;;;;;;;33.03;20.80;;;9.10;99.90;;;;;;5038031;28;20230;-83
2022/03/27 04:50:35;;;;;;;38.50;23.20;;;9.10;99.90;;;;;;5032961;28;20201;-83
2022/03/27 04:53:01;;;;;;;36.23;21.63;;;9.10;99.90;;;;;;5015556;28;20773;-83
2022/03/27 04:55:28;;;;;;;38.87;22.10;;;9.20;99.90;;;;;;5030792;28;20233;-83
2022/03/27 04:57:55;;;;;;;39.83;24.00;;;9.20;99.90;;;;;;5028950;28;20214;-82
2022/03/27 05:00:22;;;;;;;39.60;24.37;;;9.20;99.90;;;;;;5018231;28;20205;-82
2022/03/27 05:02:49;;;;;;;37.80;23.73;;;9.30;99.90;;;;;;5031871;28;20218;-82
2022/03/27 05:05:17;;;;;;;38.43;22.97;;;9.30;99.90;;;;;;5029365;28;20209;-81
2022/03/27 05:07:45;;;;;;;39.07;23.87;;;9.30;99.90;;;;;;5027996;28;20222;-81
2022/03/27 05:10:14;;;;;;;37.77;24.27;;;9.30;99.90;;;;;;5028854;28;20297;-81
2022/03/27 05:12:41;;;;;;;34.97;20.23;;;9.30;99.90;;;;;;5027061;28;20214;-81
2022/03/27 05:15:10;;;;;;;42.77;24.63;;;9.30;99.90;;;;;;5031663;28;20237;-81
2022/03/27 05:17:49;;;;;;;40.47;23.53;;;9.40;99.90;;;;;;5030578;28;20233;-82
2022/03/27 05:20:18;;;;;;;40.60;22.83;;;9.40;99.90;;;;;;5011460;28;20225;-80
2022/03/27 05:22:46;;;;;;;45.03;24.10;;;9.40;99.90;;;;;;5023186;28;20296;-83
2022/03/27 05:25:15;;;;;;;44.67;25.97;;;9.40;99.90;;;;;;5032786;28;20207;-83
2022/03/27 05:27:47;;;;;;;43.63;24.73;;;9.40;99.90;;;;;;5029290;28;20233;-83
2022/03/27 05:30:16;;;;;;;45.97;26.20;;;9.40;99.90;;;;;;5029260;28;20202;-84
2022/03/27 05:32:43;;;;;;;50.73;28.77;;;9.40;99.90;;;;;;5019713;28;20207;-84
2022/03/27 05:35:10;;;;;;;54.77;29.60;;;9.50;99.90;;;;;;5021432;28;20233;-84
2022/03/27 05:37:40;;;;;;;52.63;29.83;;;9.50;99.90;;;;;;5023904;28;20233;-84
2022/03/27 05:40:09;;;;;;;62.93;31.27;;;9.50;99.90;;;;;;5014183;28;20212;-83
2022/03/27 05:42:37;;;;;;;66.53;33.47;;;9.60;99.90;;;;;;5042986;28;20205;-83
2022/03/27 05:45:06;;;;;;;65.17;34.20;;;9.50;99.90;;;;;;5040470;28;20208;-83
2022/03/27 05:47:34;;;;;;;63.57;33.17;;;9.50;99.90;;;;;;5022597;28;20260;-82
2022/03/27 05:50:01;;;;;;;66.70;34.17;;;9.60;99.90;;;;;;5027662;28;20618;-82
2022/03/27 05:52:29;;;;;;;69.90;35.57;;;9.60;99.90;;;;;;5013306;28;20210;-83
2022/03/27 05:54:58;;;;;;;74.50;38.00;;;9.50;99.90;;;;;;5018571;28;20226;-82
2022/03/27 05:57:25;;;;;;;73.37;36.47;;;9.60;99.90;;;;;;5022564;28;20288;-83
2022/03/27 05:59:52;;;;;;;71.37;37.73;;;9.70;99.90;;;;;;5016457;28;20304;-83
2022/03/27 06:02:19;;;;;;;74.47;38.53;;;9.70;99.90;;;;;;5011086;28;20226;-83
2022/03/27 06:04:46;;;;;;;70.90;36.03;;;9.80;99.90;;;;;;5016077;28;20214;-83
2022/03/27 06:07:12;;;;;;;75.70;35.30;;;9.80;99.90;;;;;;5016893;28;20225;-83
2022/03/27 06:09:40;;;;;;;65.73;32.97;;;9.80;99.90;;;;;;5013801;28;20568;-83
2022/03/27 06:12:10;;;;;;;65.43;34.63;;;9.80;99.90;;;;;;5020291;28;20222;-82
2022/03/27 06:14:37;;;;;;;67.93;35.17;;;9.80;99.90;;;;;;5021282;28;20218;-82
2022/03/27 06:17:05;;;;;;;63.93;33.87;;;9.90;99.90;;;;;;5023780;28;20268;-82
2022/03/27 06:19:32;;;;;;;66.50;35.07;;;9.90;99.90;;;;;;5002843;28;20236;-84
2022/03/27 06:21:59;;;;;;;67.97;35.60;;;10.10;99.90;;;;;;5025639;28;20841;-81
2022/03/27 06:24:26;;;;;;;56.40;32.93;;;10.20;99.90;;;;;;5020648;28;20210;-81
2022/03/27 06:26:54;;;;;;;64.70;33.37;;;10.40;99.90;;;;;;5015390;28;20210;-81
2022/03/27 06:29:22;;;;;;;57.77;32.33;;;10.40;99.90;;;;;;5016216;28;20276;-81
2022/03/27 06:31:49;;;;;;;56.60;30.77;;;10.40;99.90;;;;;;5013633;28;20589;-82
2022/03/27 06:34:17;;;;;;;51.70;30.47;;;10.40;99.90;;;;;;5019023;28;20225;-82
2022/03/27 06:36:44;;;;;;;55.80;31.93;;;10.40;99.90;;;;;;5025089;28;20237;-81
2022/03/27 06:39:11;;;;;;;57.23;30.93;;;10.40;99.90;;;;;;5015570;28;20709;-82
2022/03/27 06:41:39;;;;;;;52.33;30.17;;;10.40;99.90;;;;;;5019764;28;20248;-84
2022/03/27 06:44:06;;;;;;;52.60;28.90;;;10.50;99.90;;;;;;5028031;28;20202;-83
2022/03/27 06:46:34;;;;;;;50.50;28.57;;;10.40;99.90;;;;;;5024958;28;20293;-84
2022/03/27 06:49:01;;;;;;;43.87;28.17;;;10.50;99.90;;;;;;5022597;28;20258;-83
2022/03/27 06:51:29;;;;;;;51.00;29.33;;;10.50;99.90;;;;;;5022305;28;20224;-82
2022/03/27 06:53:57;;;;;;;48.93;30.13;;;10.50;99.90;;;;;;5009227;28;20725;-83
2022/03/27 06:56:25;;;;;;;52.87;29.63;;;9.50;99.90;;;;;;5023023;28;20553;-81
2022/03/27 06:58:52;;;;;;;50.97;30.47;;;10.50;99.90;;;;;;5019792;28;20257;-81
2022/03/27 07:04:05;;;;;;;50.93;30.67;;;10.60;99.90;;;;;;5019039;28;20268;-82
2022/03/27 07:06:32;;;;;;;49.33;29.17;;;10.70;99.90;;;;;;5017238;28;20202;-81
2022/03/27 07:09:01;;;;;;;39.50;24.87;;;10.80;99.90;;;;;;5024308;28;20234;-83
2022/03/27 07:11:27;;;;;;;46.00;28.27;;;10.80;99.90;;;;;;5018513;28;20210;-81
2022/03/27 07:13:54;;;;;;;46.63;28.17;;;10.90;99.90;;;;;;5009550;28;20551;-82
2022/03/27 07:16:22;;;;;;;42.00;26.77;;;11.00;99.90;;;;;;5018325;28;20214;-82
2022/03/27 07:18:49;;;;;;;39.50;25.13;;;11.10;99.90;;;;;;5023465;28;20284;-84
2022/03/27 07:21:19;;;;;;;42.37;25.63;;;11.10;99.90;;;;;;5023484;28;20214;-83
2022/03/27 07:23:46;;;;;;;50.97;26.97;;;11.10;99.90;;;;;;5020741;28;20226;-82
2022/03/27 07:26:13;;;;;;;45.47;25.77;;;11.00;99.90;;;;;;5025149;28;20296;-81
2022/03/27 07:28:41;;;;;;;50.60;27.90;;;11.00;99.90;;;;;;5022932;28;20244;-82
2022/03/27 07:31:11;;;;;;;45.60;26.93;;;11.10;99.90;;;;;;5019377;28;20203;-81
2022/03/27 07:33:38;;;;;;;45.10;26.23;;;11.10;99.90;;;;;;5031770;28;20384;-82
2022/03/27 07:36:05;;;;;;;45.63;25.93;;;11.30;99.90;;;;;;5014182;28;20816;-82
2022/03/27 07:38:34;;;;;;;40.00;24.33;;;11.40;99.90;;;;;;5018986;28;20241;-82
2022/03/27 07:41:01;;;;;;;40.20;23.77;;;11.40;99.90;;;;;;5020545;28;20208;-83
2022/03/27 07:43:28;;;;;;;37.03;22.40;;;11.40;99.90;;;;;;5021800;28;20324;-84
2022/03/27 07:45:55;;;;;;;33.23;22.63;;;11.50;99.90;;;;;;5009361;28;20212;-88
2022/03/27 07:48:22;;;;;;;33.60;22.17;;;11.60;99.90;;;;;;5026732;28;20284;-88
2022/03/27 07:50:54;;;;;;;27.87;19.47;;;11.80;99.90;;;;;;5019789;28;20236;-86
2022/03/27 07:53:22;;;;;;;34.63;21.33;;;11.90;99.90;;;;;;5023240;28;20324;-87
2022/03/27 07:55:51;;;;;;;36.50;21.23;;;12.10;99.90;;;;;;5013486;28;20437;-86
2022/03/27 07:58:18;;;;;;;33.90;22.23;;;12.20;99.90;;;;;;5014931;28;20239;-87
2022/03/27 08:00:45;;;;;;;29.10;20.67;;;12.40;99.90;;;;;;5029856;28;20293;-87
2022/03/27 08:03:13;;;;;;;33.90;21.23;;;12.60;99.90;;;;;;5050863;28;20203;-87
2022/03/27 08:05:43;;;;;;;26.67;18.97;;;12.70;99.90;;;;;;5033426;28;20225;-86
2022/03/27 08:08:10;;;;;;;23.80;18.33;;;12.90;99.90;;;;;;5051556;28;20226;-86
2022/03/27 08:10:42;;;;;;;26.53;18.80;;;12.90;99.90;;;;;;5029141;28;20209;-87
2022/03/27 08:13:10;;;;;;;24.73;18.17;;;12.90;99.90;;;;;;5012297;28;20710;-86
2022/03/27 08:15:37;;;;;;;22.13;16.53;;;12.90;99.90;;;;;;5014155;28;20669;-86
2022/03/27 08:18:05;;;;;;;23.67;17.83;;;12.90;99.90;;;;;;5017967;28;20241;-86
2022/03/27 08:20:32;;;;;;;26.77;18.43;;;13.00;99.90;;;;;;5032194;28;20208;-87
2022/03/27 08:22:59;;;;;;;27.70;18.57;;;13.00;99.90;;;;;;5017738;28;20253;-86
2022/03/27 08:28:14;;;;;;;25.70;18.40;;;13.50;99.90;;;;;;5028865;28;20236;-87
2022/03/27 08:30:41;;;;;;;25.40;17.63;;;13.60;99.90;;;;;;5031597;28;20237;-86
2022/03/27 08:33:09;;;;;;;24.00;18.37;;;13.80;99.90;;;;;;5026772;28;20199;-86
2022/03/27 08:35:36;;;;;;;23.70;17.47;;;14.00;99.90;;;;;;5029929;28;20209;-86
2022/03/27 08:38:04;;;;;;;24.53;18.43;;;14.10;99.90;;;;;;5031927;28;20249;-86
2022/03/27 08:40:32;;;;;;;23.30;17.97;;;;;;;;;;5022502;28;20209;-85
2022/03/27 08:42:59;;;;;;;28.07;18.43;;;14.30;99.90;;;;;;5009762;28;20661;-85
2022/03/27 08:45:29;;;;;;;24.40;18.23;;;14.50;99.90;;;;;;5026736;28;20217;-85
2022/03/27 08:47:56;;;;;;;28.00;19.57;;;14.60;99.90;;;;;;5026053;28;20607;-85
2022/03/27 08:50:30;;;;;;;25.93;17.43;;;14.10;99.90;;;;;;5011177;28;20210;-85
2022/03/27 08:52:59;;;;;;;24.40;18.30;;;14.80;99.90;;;;;;5004535;28;20250;-85
2022/03/27 08:55:40;;;;;;;22.90;17.23;;;14.80;99.90;;;;;;5036555;28;20264;-85
2022/03/27 08:58:09;;;;;;;25.87;18.00;;;14.80;99.90;;;;;;5038265;28;20236;-85
2022/03/27 09:00:39;;;;;;;23.87;18.20;;;14.70;99.90;;;;;;5003204;28;20249;-86
2022/03/27 09:03:07;;;;;;;22.17;16.80;;;14.70;99.90;;;;;;5015280;28;20522;-87
2022/03/27 09:05:35;;;;;;;24.10;17.63;;;14.90;99.90;;;;;;5028166;28;20213;-87
2022/03/27 09:08:07;;;;;;;23.57;18.07;;;15.00;99.90;;;;;;5011863;28;20237;-88
2022/03/27 09:10:34;;;;;;;25.33;17.07;;;15.30;99.90;;;;;;5033180;28;20288;-87
2022/03/27 09:13:02;;;;;;;29.23;18.13;;;15.50;99.90;;;;;;5028025;28;20226;-88
2022/03/27 09:15:29;;;;;;;28.20;17.60;;;;;;;;;;5027358;28;20288;-87
2022/03/27 09:18:04;;;;;;;26.87;17.00;;;15.50;99.90;;;;;;5024675;28;20503;-87
2022/03/27 09:20:40;;;;;;;24.40;17.60;;;15.70;99.90;;;;;;5023284;28;20248;-87
2022/03/27 09:23:20;;;;;;;27.33;17.70;;;15.30;99.90;;;;;;5006918;28;20209;-87
2022/03/27 09:25:51;;;;;;;26.77;17.93;;;15.20;99.90;;;;;;5023832;28;20237;-87
2022/03/27 09:28:33;;;;;;;22.97;17.17;;;15.20;99.90;;;;;;5026531;28;20471;-87
2022/03/27 09:31:02;;;;;;;23.10;17.07;;;15.40;99.90;;;;;;5014362;28;20206;-87
2022/03/27 09:33:37;;;;;;;26.77;17.37;;;15.40;99.90;;;;;;5011060;28;20712;-86
2022/03/27 09:36:08;;;;;;;23.60;16.70;;;15.50;99.90;;;;;;5022425;28;20217;-87
2022/03/27 09:38:36;;;;;;;26.53;17.73;;;15.40;99.90;;;;;;5007816;28;20230;-87
2022/03/27 09:41:03;;;;;;;26.13;16.80;;;15.40;99.90;;;;;;5019799;28;20214;-88
2022/03/27 09:43:32;;;;;;;25.37;17.10;;;15.50;99.90;;;;;;5030130;28;20603;-87
2022/03/27 09:46:01;;;;;;;26.57;19.30;;;15.70;99.90;;;;;;5029658;28;20562;-87
2022/03/27 09:48:29;;;;;;;24.90;16.83;;;17.60;99.90;;;;;;5030670;28;20269;-87
2022/03/27 09:51:00;;;;;;;23.90;18.17;;;15.60;99.90;;;;;;5012404;28;20213;-87
2022/03/27 09:53:29;;;;;;;23.00;17.30;;;15.70;99.90;;;;;;5026015;28;20236;-87
2022/03/27 09:56:15;;;;;;;24.97;17.70;;;15.70;99.90;;;;;;5028488;28;20225;-86
2022/03/27 09:58:43;;;;;;;20.90;16.30;;;16.10;99.90;;;;;;5027275;28;20283;-86
2022/03/27 10:01:12;;;;;;;23.40;16.63;;;16.00;99.90;;;;;;5011134;28;20207;-87
2022/03/27 10:04:01;;;;;;;26.43;18.50;;;16.10;99.90;;;;;;5028583;28;20236;-87
2022/03/27 10:06:32;;;;;;;28.80;20.70;;;16.10;99.90;;;;;;5021055;28;20225;-88
2022/03/27 10:09:01;;;;;;;29.37;19.60;;;16.10;99.90;;;;;;5022450;28;20249;-87
2022/03/27 10:11:29;;;;;;;28.37;19.50;;;16.80;99.90;;;;;;5011371;28;20206;-87
2022/03/27 10:13:56;;;;;;;31.80;21.77;;;;;;;;;;5024524;28;20221;-88
2022/03/27 10:16:26;;;;;;;33.87;23.60;;;17.40;99.90;;;;;;5026442;28;20290;-86
2022/03/27 10:19:00;;;;;;;31.30;20.00;;;17.40;99.90;;;;;;5012421;28;20235;-86
2022/03/27 10:21:27;;;;;;;29.80;21.73;;;17.30;99.90;;;;;;5033451;28;20206;-88
2022/03/27 10:24:06;;;;;;;31.70;20.73;;;17.30;99.90;;;;;;5016105;28;20225;-87
2022/03/27 10:26:34;;;;;;;31.37;23.23;;;17.30;99.90;;;;;;5033135;28;20207;-89
2022/03/27 10:29:03;;;;;;;32.17;22.57;;;;;;;;;;5027422;28;20234;-89
2022/03/27 10:31:30;;;;;;;35.80;26.07;;;17.70;99.90;;;;;;5007500;28;20657;-88
2022/03/27 10:34:00;;;;;;;36.13;24.63;;;17.60;99.90;;;;;;5031580;28;20293;-88
2022/03/27 10:36:43;;;;;;;37.57;24.47;;;17.60;99.90;;;;;;5005875;28;20255;-88
2022/03/27 10:39:20;;;;;;;41.47;26.57;;;17.30;99.90;;;;;;5013527;28;20236;-87
2022/03/27 10:41:54;;;;;;;39.90;24.10;;;16.70;99.90;;;;;;5023388;28;20273;-87
2022/03/27 10:44:27;;;;;;;38.73;26.50;;;16.70;99.90;;;;;;5029307;28;20215;-88
2022/03/27 10:47:12;;;;;;;40.13;25.20;;;16.40;99.90;;;;;;5036028;28;20195;-88
2022/03/27 10:50:04;;;;;;;40.20;25.17;;;16.10;99.90;;;;;;5011876;28;20213;-87
2022/03/27 10:52:36;;;;;;;40.63;26.50;;;16.10;99.90;;;;;;5026412;28;20308;-87
2022/03/27 10:55:09;;;;;;;33.33;21.27;;;15.90;99.90;;;;;;5033951;28;20197;-87
2022/03/27 10:57:39;;;;;;;36.27;21.30;;;16.00;99.90;;;;;;5034538;28;20312;-87
2022/03/27 11:00:10;;;;;;;35.93;21.93;;;16.30;99.90;;;;;;5012502;28;20210;-88
2022/03/27 11:02:45;;;;;;;32.67;21.13;;;16.10;99.90;;;;;;5031368;28;20283;-88
2022/03/27 11:05:57;;;;;;;30.00;19.47;;;16.20;99.90;;;;;;5029010;28;20232;-88
2022/03/27 11:08:48;;;;;;;31.83;18.63;;;16.30;99.90;;;;;;5028240;28;20818;-86
2022/03/27 11:11:50;;;;;;;30.77;20.03;;;16.20;99.90;;;;;;5004138;28;20224;-86
2022/03/27 11:14:38;;;;;;;30.23;16.57;;;16.20;99.90;;;;;;5020053;28;20224;-89
2022/03/27 11:17:13;;;;;;;36.80;20.50;;;16.40;99.90;;;;;;5019002;28;20348;-88
2022/03/27 11:19:45;;;;;;;27.60;18.27;;;16.60;99.90;;;;;;5021815;28;20198;-89
2022/03/27 11:22:44;;;;;;;26.60;18.47;;;16.60;99.90;;;;;;5013226;28;20342;-89
2022/03/27 11:25:35;;;;;;;27.57;18.37;;;16.80;99.90;;;;;;5035185;28;20208;-89
2022/03/27 11:28:08;;;;;;;20.93;13.53;;;16.80;99.90;;;;;;5021801;28;20263;-89
2022/03/27 11:30:38;;;;;;;23.80;17.43;;;16.90;99.90;;;;;;5042446;28;20209;-89
2022/03/27 11:33:17;;;;;;;24.87;17.33;;;17.00;99.90;;;;;;5014971;28;20265;-89
2022/03/27 11:36:22;;;;;;;22.43;16.03;;;17.40;99.90;;;;;;5034247;28;20620;-86
2022/03/27 11:41:50;;;;;;;25.63;17.43;;;17.60;99.90;;;;;;5009368;28;20237;-88
2022/03/27 11:45:06;;;;;;;29.53;18.50;;;17.80;99.90;;;;;;5029059;28;20205;-86
2022/03/27 11:47:35;;;;;;;27.30;17.37;;;17.90;99.90;;;;;;5016053;28;20336;-90
2022/03/27 11:50:04;;;;;;;24.67;17.27;;;18.10;99.90;;;;;;5029921;28;20316;-89
2022/03/27 11:52:31;;;;;;;24.23;14.33;;;;;;;;;;5026423;28;21732;-88
2022/03/27 11:55:07;;;;;;;22.73;15.10;;;18.30;99.90;;;;;;5012850;28;20214;-87
2022/03/27 11:57:48;;;;;;;23.73;16.20;;;18.30;99.90;;;;;;5021200;28;20236;-89
2022/03/27 12:00:16;;;;;;;21.80;14.77;;;;;;;;;;5024680;28;20308;-88
2022/03/27 12:02:46;;;;;;;20.30;13.73;;;18.30;99.90;;;;;;5025866;28;20552;-89
2022/03/27 12:05:14;;;;;;;21.87;15.10;;;18.40;99.90;;;;;;5025524;28;20208;-89
2022/03/27 12:07:57;;;;;;;21.77;14.00;;;18.40;99.90;;;;;;5040354;28;20256;-90
2022/03/27 12:10:26;;;;;;;19.07;14.07;;;18.50;99.90;;;;;;5024048;28;20653;-85
2022/03/27 12:13:08;;;;;;;20.10;14.20;;;18.40;99.90;;;;;;5015873;28;20259;-85
2022/03/27 12:15:45;;;;;;;18.83;13.47;;;19.60;99.90;;;;;;5038601;28;20201;-86
2022/03/27 12:18:13;;;;;;;17.67;13.17;;;18.60;99.90;;;;;;5033160;28;20853;-85
2022/03/27 12:20:42;;;;;;;23.57;16.07;;;18.70;99.90;;;;;;5012521;28;20233;-85
2022/03/27 12:23:19;;;;;;;20.13;14.00;;;19.00;99.90;;;;;;5038315;28;20216;-86
2022/03/27 12:25:56;;;;;;;18.30;13.27;;;19.00;99.90;;;;;;5042971;28;20201;-85
2022/03/27 12:31:24;;;;;;;16.70;11.93;;;19.10;99.90;;;;;;5030819;28;20209;-86
2022/03/27 12:33:53;;;;;;;16.97;11.23;;;19.30;99.90;;;;;;5032016;28;20561;-86
2022/03/27 12:36:20;;;;;;;21.67;13.10;;;19.30;99.90;;;;;;5018863;28;20217;-86
2022/03/27 12:38:47;;;;;;;17.37;12.40;;;19.30;99.90;;;;;;5033610;28;20229;-86
2022/03/27 12:41:15;;;;;;;18.30;11.77;;;;;;;;;;5036439;28;20264;-86
2022/03/27 12:43:59;;;;;;;19.90;10.97;;;19.10;99.90;;;;;;5047284;28;20223;-85
2022/03/27 12:46:27;;;;;;;17.37;12.13;;;19.30;99.90;;;;;;5040124;28;20301;-86
2022/03/27 12:48:58;;;;;;;18.47;11.33;;;19.90;99.90;;;;;;5033248;28;20238;-86
2022/03/27 12:51:25;;;;;;;18.27;10.67;;;19.70;99.90;;;;;;5030115;28;20205;-86
2022/03/27 12:54:07;;;;;;;16.70;11.40;;;19.80;99.90;;;;;;5032523;28;20237;-85
2022/03/27 12:56:35;;;;;;;18.63;12.63;;;19.70;99.90;;;;;;5032584;28;20213;-86
2022/03/27 12:59:19;;;;;;;12.83;8.27;;;19.60;99.90;;;;;;5010064;28;20761;-86
2022/03/27 13:01:47;;;;;;;16.27;10.27;;;19.70;99.90;;;;;;5037632;28;20198;-85
2022/03/27 13:04:14;;;;;;;11.53;8.67;;;19.70;99.90;;;;;;5032228;28;20646;-85
2022/03/27 13:06:43;;;;;;;11.30;7.20;;;19.80;99.90;;;;;;5015321;28;20205;-85